sensor_id;sensor_type;location;lat;lon;timestamp;temperature;humidity
8537;DHT22;4306;50.210;10.628;2023-12-07T00:00:34;1.60;99.90
8537;DHT22;4306;50.210;10.628;2023-12-07T00:03:02;1.60;99.90
8537;DHT22;4306;50.210;10.628;2023-12-07T00:05:32;1.50;99.90
8537;DHT22;4306;50.210;10.628;2023-12-07T00:07:59;1.50;99.90
8537;DHT22;4306;50.210;10.628;2023-12-07T00:10:27;1.50;99.90
8537;DHT22;4306;50.210;10.628;2023-12-07T00:12:54;1.40;99.90
8537;DHT22;4306;50.210;10.628;2023-12-07T00:15:21;1.40;99.90
8537;DHT22;4306;50.210;10.628;2023-12-07T00:17:48;1.30;99.90
8537;DHT22;4306;50.210;10.628;2023-12-07T00:20:15;1.20;99.90
8537;DHT22;4306;50.210;10.628;2023-12-07T00:22:41;1.20;99.90
8537;DHT22;4306;50.210;10.628;2023-12-07T00:25:08;1.20;99.90
8537;DHT22;4306;50.210;10.628;2023-12-07T00:27:36;1.10;99.90
8537;DHT22;4306;50.210;10.628;2023-12-07T00:30:04;1.00;99.90
8537;DHT22;4306;50.210;10.628;2023-12-07T00:32:32;1.00;99.90
8537;DHT22;4306;50.210;10.628;2023-12-07T00:34:59;1.00;99.90
8537;DHT22;4306;50.210;10.628;2023-12-07T00:37:26;1.10;99.90
8537;DHT22;4306;50.210;10.628;2023-12-07T00:39:53;1.10;99.90
8537;DHT22;4306;50.210;10.628;2023-12-07T00:42:20;1.10;99.90
8537;DHT22;4306;50.210;10.628;2023-12-07T00:44:48;1.00;99.90
8537;DHT22;4306;50.210;10.628;2023-12-07T00:47:15;1.00;99.90
8537;DHT22;4306;50.210;10.628;2023-12-07T00:49:42;1.00;99.90
8537;DHT22;4306;50.210;10.628;2023-12-07T00:52:09;0.90;99.90
8537;DHT22;4306;50.210;10.628;2023-12-07T00:54:36;0.90;99.90
8537;DHT22;4306;50.210;10.628;2023-12-07T00:57:03;0.90;99.90
8537;DHT22;4306;50.210;10.628;2023-12-07T00:59:30;1.10;99.90
8537;DHT22;4306;50.210;10.628;2023-12-07T01:02:01;1.00;99.90
8537;DHT22;4306;50.210;10.628;2023-12-07T01:04:28;1.00;99.90
8537;DHT22;4306;50.210;10.628;2023-12-07T01:06:55;1.00;99.90
8537;DHT22;4306;50.210;10.628;2023-12-07T01:09:22;1.10;99.90
8537;DHT22;4306;50.210;10.628;2023-12-07T01:11:50;1.10;99.90
8537;DHT22;4306;50.210;10.628;2023-12-07T01:14:17;1.10;99.90
8537;DHT22;4306;50.210;10.628;2023-12-07T01:16:45;1.10;99.90
8537;DHT22;4306;50.210;10.628;2023-12-07T01:19:13;1.10;99.90
8537;DHT22;4306;50.210;10.628;2023-12-07T01:21:41;1.10;99.90
8537;DHT22;4306;50.210;10.628;2023-12-07T01:24:08;1.20;99.90
8537;DHT22;4306;50.210;10.628;2023-12-07T01:26:35;1.20;99.90
8537;DHT22;4306;50.210;10.628;2023-12-07T01:29:02;1.30;99.90
8537;DHT22;4306;50.210;10.628;2023-12-07T01:31:29;1.20;99.90
8537;DHT22;4306;50.210;10.628;2023-12-07T01:33:56;1.30;99.90
8537;DHT22;4306;50.210;10.628;2023-12-07T01:36:25;1.30;99.90
8537;DHT22;4306;50.210;10.628;2023-12-07T01:38:52;1.30;99.90
8537;DHT22;4306;50.210;10.628;2023-12-07T01:41:19;1.30;99.90
8537;DHT22;4306;50.210;10.628;2023-12-07T01:43:46;1.40;99.90
8537;DHT22;4306;50.210;10.628;2023-12-07T01:46:14;1.30;99.90
8537;DHT22;4306;50.210;10.628;2023-12-07T01:48:43;1.30;99.90
8537;DHT22;4306;50.210;10.628;2023-12-07T01:51:14;1.40;99.90
8537;DHT22;4306;50.210;10.628;2023-12-07T01:53:43;1.30;99.90
8537;DHT22;4306;50.210;10.628;2023-12-07T01:56:11;1.40;99.90
8537;DHT22;4306;50.210;10.628;2023-12-07T01:58:38;1.40;99.90
8537;DHT22;4306;50.210;10.628;2023-12-07T02:01:05;1.30;99.90
8537;DHT22;4306;50.210;10.628;2023-12-07T02:03:32;1.40;99.90
8537;DHT22;4306;50.210;10.628;2023-12-07T02:06:00;1.40;99.90
8537;DHT22;4306;50.210;10.628;2023-12-07T02:08:27;1.40;99.90
8537;DHT22;4306;50.210;10.628;2023-12-07T02:10:56;1.40;99.90
8537;DHT22;4306;50.210;10.628;2023-12-07T02:13:23;1.30;99.90
8537;DHT22;4306;50.210;10.628;2023-12-07T02:15:51;1.30;99.90
8537;DHT22;4306;50.210;10.628;2023-12-07T02:18:25;1.40;99.90
8537;DHT22;4306;50.210;10.628;2023-12-07T02:21:01;1.40;99.90
8537;DHT22;4306;50.210;10.628;2023-12-07T02:23:32;1.40;99.90
8537;DHT22;4306;50.210;10.628;2023-12-07T02:26:03;1.40;99.90
8537;DHT22;4306;50.210;10.628;2023-12-07T02:28:32;1.30;99.90
8537;DHT22;4306;50.210;10.628;2023-12-07T02:30:59;1.30;99.90
8537;DHT22;4306;50.210;10.628;2023-12-07T02:33:26;1.40;99.90
8537;DHT22;4306;50.210;10.628;2023-12-07T02:35:53;1.40;99.90
8537;DHT22;4306;50.210;10.628;2023-12-07T02:38:22;1.40;99.90
8537;DHT22;4306;50.210;10.628;2023-12-07T02:40:53;1.40;99.90
8537;DHT22;4306;50.210;10.628;2023-12-07T02:43:21;1.50;99.90
8537;DHT22;4306;50.210;10.628;2023-12-07T02:45:50;1.30;99.90
8537;DHT22;4306;50.210;10.628;2023-12-07T02:48:17;1.30;99.90
8537;DHT22;4306;50.210;10.628;2023-12-07T02:50:44;1.20;99.90
8537;DHT22;4306;50.210;10.628;2023-12-07T02:53:11;1.30;99.90
8537;DHT22;4306;50.210;10.628;2023-12-07T02:55:38;1.30;99.90
8537;DHT22;4306;50.210;10.628;2023-12-07T02:58:05;1.30;99.90
8537;DHT22;4306;50.210;10.628;2023-12-07T03:00:33;1.60;99.90
8537;DHT22;4306;50.210;10.628;2023-12-07T03:03:01;1.40;99.90
8537;DHT22;4306;50.210;10.628;2023-12-07T03:05:28;1.40;99.90
8537;DHT22;4306;50.210;10.628;2023-12-07T03:07:55;1.50;99.90
8537;DHT22;4306;50.210;10.628;2023-12-07T03:10:22;1.50;99.90
8537;DHT22;4306;50.210;10.628;2023-12-07T03:12:49;1.50;99.90
8537;DHT22;4306;50.210;10.628;2023-12-07T03:15:16;1.50;99.90
8537;DHT22;4306;50.210;10.628;2023-12-07T03:17:43;1.60;99.90
8537;DHT22;4306;50.210;10.628;2023-12-07T03:20:13;1.50;99.90
8537;DHT22;4306;50.210;10.628;2023-12-07T03:22:40;1.60;99.90
8537;DHT22;4306;50.210;10.628;2023-12-07T03:25:07;1.60;99.90
8537;DHT22;4306;50.210;10.628;2023-12-07T03:27:34;1.60;99.90
8537;DHT22;4306;50.210;10.628;2023-12-07T03:30:00;1.60;99.90
8537;DHT22;4306;50.210;10.628;2023-12-07T03:32:27;1.60;99.90
8537;DHT22;4306;50.210;10.628;2023-12-07T03:34:54;1.60;99.90
8537;DHT22;4306;50.210;10.628;2023-12-07T03:37:23;1.60;99.90
8537;DHT22;4306;50.210;10.628;2023-12-07T03:39:50;1.60;99.90
8537;DHT22;4306;50.210;10.628;2023-12-07T03:42:17;1.60;99.90
8537;DHT22;4306;50.210;10.628;2023-12-07T03:44:44;1.80;99.90
8537;DHT22;4306;50.210;10.628;2023-12-07T03:47:11;1.70;99.90
8537;DHT22;4306;50.210;10.628;2023-12-07T03:49:38;1.60;99.90
8537;DHT22;4306;50.210;10.628;2023-12-07T03:52:06;1.60;99.90
8537;DHT22;4306;50.210;10.628;2023-12-07T03:54:35;1.60;99.90
8537;DHT22;4306;50.210;10.628;2023-12-07T03:57:03;1.60;99.90
8537;DHT22;4306;50.210;10.628;2023-12-07T03:59:31;1.60;99.90
8537;DHT22;4306;50.210;10.628;2023-12-07T04:01:58;1.70;99.90
8537;DHT22;4306;50.210;10.628;2023-12-07T04:04:25;1.70;99.90
8537;DHT22;4306;50.210;10.628;2023-12-07T04:06:52;1.60;99.90
8537;DHT22;4306;50.210;10.628;2023-12-07T04:09:19;1.60;99.90
8537;DHT22;4306;50.210;10.628;2023-12-07T04:11:47;1.70;99.90
8537;DHT22;4306;50.210;10.628;2023-12-07T04:14:15;1.60;99.90
8537;DHT22;4306;50.210;10.628;2023-12-07T04:16:42;1.60;99.90
8537;DHT22;4306;50.210;10.628;2023-12-07T04:19:09;1.60;99.90
8537;DHT22;4306;50.210;10.628;2023-12-07T04:21:36;1.60;99.90
8537;DHT22;4306;50.210;10.628;2023-12-07T04:24:04;1.60;99.90
8537;DHT22;4306;50.210;10.628;2023-12-07T04:26:31;1.50;99.90
8537;DHT22;4306;50.210;10.628;2023-12-07T04:29:00;1.60;99.90
8537;DHT22;4306;50.210;10.628;2023-12-07T04:31:27;1.60;99.90
8537;DHT22;4306;50.210;10.628;2023-12-07T04:33:54;1.70;99.90
8537;DHT22;4306;50.210;10.628;2023-12-07T04:36:21;1.60;99.90
8537;DHT22;4306;50.210;10.628;2023-12-07T04:38:48;1.60;99.90
8537;DHT22;4306;50.210;10.628;2023-12-07T04:41:15;1.60;99.90
8537;DHT22;4306;50.210;10.628;2023-12-07T04:43:42;1.60;99.90
8537;DHT22;4306;50.210;10.628;2023-12-07T04:46:10;1.60;99.90
8537;DHT22;4306;50.210;10.628;2023-12-07T04:48:37;1.60;99.90
8537;DHT22;4306;50.210;10.628;2023-12-07T04:51:06;1.70;99.90
8537;DHT22;4306;50.210;10.628;2023-12-07T04:53:33;1.60;99.90
8537;DHT22;4306;50.210;10.628;2023-12-07T04:56:00;1.60;99.90
8537;DHT22;4306;50.210;10.628;2023-12-07T04:58:27;1.60;99.90
8537;DHT22;4306;50.210;10.628;2023-12-07T05:00:54;1.60;99.90
8537;DHT22;4306;50.210;10.628;2023-12-07T05:03:23;1.60;99.90
8537;DHT22;4306;50.210;10.628;2023-12-07T05:05:50;1.50;99.90
8537;DHT22;4306;50.210;10.628;2023-12-07T05:08:17;1.50;99.90
8537;DHT22;4306;50.210;10.628;2023-12-07T05:10:44;1.50;99.90
8537;DHT22;4306;50.210;10.628;2023-12-07T05:13:12;1.50;99.90
8537;DHT22;4306;50.210;10.628;2023-12-07T05:15:39;1.50;99.90
8537;DHT22;4306;50.210;10.628;2023-12-07T05:18:06;1.50;99.90
8537;DHT22;4306;50.210;10.628;2023-12-07T05:20:35;1.40;99.90
8537;DHT22;4306;50.210;10.628;2023-12-07T05:23:04;1.40;99.90
8537;DHT22;4306;50.210;10.628;2023-12-07T05:25:32;1.30;99.90
8537;DHT22;4306;50.210;10.628;2023-12-07T05:27:59;1.30;99.90
8537;DHT22;4306;50.210;10.628;2023-12-07T05:30:26;1.30;99.90
8537;DHT22;4306;50.210;10.628;2023-12-07T05:32:54;1.30;99.90
8537;DHT22;4306;50.210;10.628;2023-12-07T05:35:21;1.30;99.90
8537;DHT22;4306;50.210;10.628;2023-12-07T05:37:50;1.30;99.90
8537;DHT22;4306;50.210;10.628;2023-12-07T05:40:17;1.20;99.90
8537;DHT22;4306;50.210;10.628;2023-12-07T05:42:45;1.30;99.90
8537;DHT22;4306;50.210;10.628;2023-12-07T05:45:14;1.20;99.90
8537;DHT22;4306;50.210;10.628;2023-12-07T05:47:41;1.20;99.90
8537;DHT22;4306;50.210;10.628;2023-12-07T05:50:09;1.00;99.90
8537;DHT22;4306;50.210;10.628;2023-12-07T05:52:36;1.00;99.90
8537;DHT22;4306;50.210;10.628;2023-12-07T05:55:05;1.00;99.90
8537;DHT22;4306;50.210;10.628;2023-12-07T05:57:34;0.90;99.90
8537;DHT22;4306;50.210;10.628;2023-12-07T06:00:01;0.90;99.90
8537;DHT22;4306;50.210;10.628;2023-12-07T06:02:31;0.90;99.90
8537;DHT22;4306;50.210;10.628;2023-12-07T06:04:58;0.90;99.90
8537;DHT22;4306;50.210;10.628;2023-12-07T06:07:25;0.80;99.90
8537;DHT22;4306;50.210;10.628;2023-12-07T06:09:52;0.70;99.90
8537;DHT22;4306;50.210;10.628;2023-12-07T06:12:21;0.70;99.90
8537;DHT22;4306;50.210;10.628;2023-12-07T06:14:48;0.70;99.90
8537;DHT22;4306;50.210;10.628;2023-12-07T06:17:16;0.60;99.90
8537;DHT22;4306;50.210;10.628;2023-12-07T06:19:43;0.60;99.90
8537;DHT22;4306;50.210;10.628;2023-12-07T06:22:10;0.60;99.90
8537;DHT22;4306;50.210;10.628;2023-12-07T06:24:39;0.60;99.90
8537;DHT22;4306;50.210;10.628;2023-12-07T06:27:06;0.60;99.90
8537;DHT22;4306;50.210;10.628;2023-12-07T06:29:34;0.50;99.90
8537;DHT22;4306;50.210;10.628;2023-12-07T06:32:01;0.60;99.90
8537;DHT22;4306;50.210;10.628;2023-12-07T06:34:39;0.50;99.90
8537;DHT22;4306;50.210;10.628;2023-12-07T06:37:07;0.50;99.90
8537;DHT22;4306;50.210;10.628;2023-12-07T06:39:36;0.50;99.90
8537;DHT22;4306;50.210;10.628;2023-12-07T06:42:03;0.40;99.90
8537;DHT22;4306;50.210;10.628;2023-12-07T06:44:30;0.40;99.90
8537;DHT22;4306;50.210;10.628;2023-12-07T06:46:59;0.30;99.90
8537;DHT22;4306;50.210;10.628;2023-12-07T06:49:28;0.30;99.90
8537;DHT22;4306;50.210;10.628;2023-12-07T06:51:55;0.40;99.90
8537;DHT22;4306;50.210;10.628;2023-12-07T06:54:22;0.30;99.90
8537;DHT22;4306;50.210;10.628;2023-12-07T06:56:49;0.20;99.90
8537;DHT22;4306;50.210;10.628;2023-12-07T06:59:16;0.20;99.90
8537;DHT22;4306;50.210;10.628;2023-12-07T07:01:44;0.20;99.90
8537;DHT22;4306;50.210;10.628;2023-12-07T07:04:12;0.10;99.90
8537;DHT22;4306;50.210;10.628;2023-12-07T07:06:40;0.10;99.90
8537;DHT22;4306;50.210;10.628;2023-12-07T07:09:08;0.20;99.90
8537;DHT22;4306;50.210;10.628;2023-12-07T07:11:35;0.20;99.90
8537;DHT22;4306;50.210;10.628;2023-12-07T07:14:02;0.30;99.90
8537;DHT22;4306;50.210;10.628;2023-12-07T07:16:30;0.30;99.90
8537;DHT22;4306;50.210;10.628;2023-12-07T07:18:57;0.20;99.90
8537;DHT22;4306;50.210;10.628;2023-12-07T07:21:26;0.30;99.90
8537;DHT22;4306;50.210;10.628;2023-12-07T07:23:53;0.30;99.90
8537;DHT22;4306;50.210;10.628;2023-12-07T07:26:20;0.30;99.90
8537;DHT22;4306;50.210;10.628;2023-12-07T07:28:47;0.40;99.90
8537;DHT22;4306;50.210;10.628;2023-12-07T07:31:15;0.30;99.90
8537;DHT22;4306;50.210;10.628;2023-12-07T07:33:43;0.30;99.90
8537;DHT22;4306;50.210;10.628;2023-12-07T07:36:12;0.30;99.90
8537;DHT22;4306;50.210;10.628;2023-12-07T07:38:41;0.30;99.90
8537;DHT22;4306;50.210;10.628;2023-12-07T07:41:09;0.40;99.90
8537;DHT22;4306;50.210;10.628;2023-12-07T07:43:36;0.40;99.90
8537;DHT22;4306;50.210;10.628;2023-12-07T07:46:04;0.40;99.90
8537;DHT22;4306;50.210;10.628;2023-12-07T07:48:31;0.40;99.90
8537;DHT22;4306;50.210;10.628;2023-12-07T07:50:58;0.40;99.90
8537;DHT22;4306;50.210;10.628;2023-12-07T07:53:25;0.50;99.90
8537;DHT22;4306;50.210;10.628;2023-12-07T07:55:53;0.50;99.90
8537;DHT22;4306;50.210;10.628;2023-12-07T07:58:20;0.50;99.90
8537;DHT22;4306;50.210;10.628;2023-12-07T08:00:47;0.40;99.90
8537;DHT22;4306;50.210;10.628;2023-12-07T08:03:15;0.50;99.90
8537;DHT22;4306;50.210;10.628;2023-12-07T08:05:42;0.50;99.90
8537;DHT22;4306;50.210;10.628;2023-12-07T08:08:09;0.50;99.90
8537;DHT22;4306;50.210;10.628;2023-12-07T08:10:36;0.50;99.90
8537;DHT22;4306;50.210;10.628;2023-12-07T08:13:06;0.60;99.90
8537;DHT22;4306;50.210;10.628;2023-12-07T08:15:33;0.60;99.90
8537;DHT22;4306;50.210;10.628;2023-12-07T08:18:00;0.70;99.90
8537;DHT22;4306;50.210;10.628;2023-12-07T08:20:28;0.60;99.90
8537;DHT22;4306;50.210;10.628;2023-12-07T08:22:55;0.70;99.90
8537;DHT22;4306;50.210;10.628;2023-12-07T08:25:22;0.70;99.90
8537;DHT22;4306;50.210;10.628;2023-12-07T08:27:49;0.70;99.90
8537;DHT22;4306;50.210;10.628;2023-12-07T08:30:17;0.70;99.90
8537;DHT22;4306;50.210;10.628;2023-12-07T08:32:45;0.80;99.90
8537;DHT22;4306;50.210;10.628;2023-12-07T08:35:12;0.80;99.90
8537;DHT22;4306;50.210;10.628;2023-12-07T08:37:39;0.80;99.90
8537;DHT22;4306;50.210;10.628;2023-12-07T08:40:07;0.90;99.90
8537;DHT22;4306;50.210;10.628;2023-12-07T08:42:37;0.90;99.90
8537;DHT22;4306;50.210;10.628;2023-12-07T08:45:05;0.90;99.90
8537;DHT22;4306;50.210;10.628;2023-12-07T08:47:33;0.80;99.90
8537;DHT22;4306;50.210;10.628;2023-12-07T08:50:00;0.70;99.90
8537;DHT22;4306;50.210;10.628;2023-12-07T08:52:28;0.70;99.90
8537;DHT22;4306;50.210;10.628;2023-12-07T08:54:55;0.80;99.90
8537;DHT22;4306;50.210;10.628;2023-12-07T08:57:22;0.80;99.90
8537;DHT22;4306;50.210;10.628;2023-12-07T08:59:49;0.90;99.90
8537;DHT22;4306;50.210;10.628;2023-12-07T09:02:16;0.90;99.90
8537;DHT22;4306;50.210;10.628;2023-12-07T09:04:44;1.00;99.90
8537;DHT22;4306;50.210;10.628;2023-12-07T09:07:11;1.00;99.90
8537;DHT22;4306;50.210;10.628;2023-12-07T09:09:41;1.00;99.90
8537;DHT22;4306;50.210;10.628;2023-12-07T09:12:12;1.00;99.90
8537;DHT22;4306;50.210;10.628;2023-12-07T09:14:39;1.00;99.90
8537;DHT22;4306;50.210;10.628;2023-12-07T09:17:06;1.10;99.90
8537;DHT22;4306;50.210;10.628;2023-12-07T09:19:33;1.20;99.90
8537;DHT22;4306;50.210;10.628;2023-12-07T09:22:02;1.20;99.90
8537;DHT22;4306;50.210;10.628;2023-12-07T09:24:29;1.30;99.90
8537;DHT22;4306;50.210;10.628;2023-12-07T09:26:56;1.40;99.90
8537;DHT22;4306;50.210;10.628;2023-12-07T09:29:23;1.40;99.90
8537;DHT22;4306;50.210;10.628;2023-12-07T09:31:50;1.50;99.90
8537;DHT22;4306;50.210;10.628;2023-12-07T09:34:17;1.50;99.90
8537;DHT22;4306;50.210;10.628;2023-12-07T09:36:44;1.50;99.90
8537;DHT22;4306;50.210;10.628;2023-12-07T09:39:13;1.60;99.90
8537;DHT22;4306;50.210;10.628;2023-12-07T09:41:41;1.70;99.90
8537;DHT22;4306;50.210;10.628;2023-12-07T09:44:12;1.70;99.90
8537;DHT22;4306;50.210;10.628;2023-12-07T09:46:39;1.80;99.90
8537;DHT22;4306;50.210;10.628;2023-12-07T09:49:06;1.80;99.90
8537;DHT22;4306;50.210;10.628;2023-12-07T09:51:34;1.80;99.90
8537;DHT22;4306;50.210;10.628;2023-12-07T09:54:02;1.70;99.90
8537;DHT22;4306;50.210;10.628;2023-12-07T09:56:32;1.80;99.90
8537;DHT22;4306;50.210;10.628;2023-12-07T09:58:59;1.80;99.90
8537;DHT22;4306;50.210;10.628;2023-12-07T10:01:28;1.70;99.90
8537;DHT22;4306;50.210;10.628;2023-12-07T10:04:17;1.80;99.90
8537;DHT22;4306;50.210;10.628;2023-12-07T10:06:45;1.80;99.90
8537;DHT22;4306;50.210;10.628;2023-12-07T10:09:13;1.70;99.90
8537;DHT22;4306;50.210;10.628;2023-12-07T10:11:42;1.70;99.90
8537;DHT22;4306;50.210;10.628;2023-12-07T10:14:10;1.80;99.90
8537;DHT22;4306;50.210;10.628;2023-12-07T10:16:37;1.90;99.90
8537;DHT22;4306;50.210;10.628;2023-12-07T10:19:13;2.00;99.90
8537;DHT22;4306;50.210;10.628;2023-12-07T10:21:43;2.10;99.90
8537;DHT22;4306;50.210;10.628;2023-12-07T10:24:10;2.10;99.90
8537;DHT22;4306;50.210;10.628;2023-12-07T10:26:38;2.10;99.90
8537;DHT22;4306;50.210;10.628;2023-12-07T10:29:07;2.10;99.90
8537;DHT22;4306;50.210;10.628;2023-12-07T10:31:34;2.10;99.90
8537;DHT22;4306;50.210;10.628;2023-12-07T10:34:01;2.00;99.90
8537;DHT22;4306;50.210;10.628;2023-12-07T10:36:28;2.30;99.90
8537;DHT22;4306;50.210;10.628;2023-12-07T10:38:55;2.40;99.90
8537;DHT22;4306;50.210;10.628;2023-12-07T10:41:23;2.40;99.90
8537;DHT22;4306;50.210;10.628;2023-12-07T10:43:52;2.40;99.90
8537;DHT22;4306;50.210;10.628;2023-12-07T10:46:22;2.50;99.90
8537;DHT22;4306;50.210;10.628;2023-12-07T10:48:54;2.50;99.90
8537;DHT22;4306;50.210;10.628;2023-12-07T10:51:30;2.50;99.90
8537;DHT22;4306;50.210;10.628;2023-12-07T10:53:59;2.60;99.90
8537;DHT22;4306;50.210;10.628;2023-12-07T10:56:33;2.60;99.90
8537;DHT22;4306;50.210;10.628;2023-12-07T10:59:06;2.70;99.90
8537;DHT22;4306;50.210;10.628;2023-12-07T11:01:38;2.70;99.90
8537;DHT22;4306;50.210;10.628;2023-12-07T11:04:06;2.60;99.90
8537;DHT22;4306;50.210;10.628;2023-12-07T11:06:34;2.50;99.90
8537;DHT22;4306;50.210;10.628;2023-12-07T11:09:04;2.50;99.90
8537;DHT22;4306;50.210;10.628;2023-12-07T11:11:40;2.70;99.90
8537;DHT22;4306;50.210;10.628;2023-12-07T11:14:10;2.70;99.90
8537;DHT22;4306;50.210;10.628;2023-12-07T11:16:41;2.60;99.90
8537;DHT22;4306;50.210;10.628;2023-12-07T11:19:43;2.50;99.90
8537;DHT22;4306;50.210;10.628;2023-12-07T11:22:12;2.70;99.90
8537;DHT22;4306;50.210;10.628;2023-12-07T11:24:52;2.80;99.90
8537;DHT22;4306;50.210;10.628;2023-12-07T11:27:21;2.90;99.90
8537;DHT22;4306;50.210;10.628;2023-12-07T11:29:49;2.90;99.90
8537;DHT22;4306;50.210;10.628;2023-12-07T11:32:17;2.90;99.90
8537;DHT22;4306;50.210;10.628;2023-12-07T11:34:44;3.00;99.90
8537;DHT22;4306;50.210;10.628;2023-12-07T11:37:15;3.10;99.90
8537;DHT22;4306;50.210;10.628;2023-12-07T11:39:43;3.00;99.90
8537;DHT22;4306;50.210;10.628;2023-12-07T11:42:15;3.20;99.90
8537;DHT22;4306;50.210;10.628;2023-12-07T11:44:44;3.30;99.90
8537;DHT22;4306;50.210;10.628;2023-12-07T11:47:18;3.30;99.90
8537;DHT22;4306;50.210;10.628;2023-12-07T11:49:46;3.40;99.90
8537;DHT22;4306;50.210;10.628;2023-12-07T11:52:15;3.10;99.90
8537;DHT22;4306;50.210;10.628;2023-12-07T11:54:44;3.10;99.90
8537;DHT22;4306;50.210;10.628;2023-12-07T11:57:11;3.20;99.90
8537;DHT22;4306;50.210;10.628;2023-12-07T11:59:39;3.20;99.90
8537;DHT22;4306;50.210;10.628;2023-12-07T12:02:06;3.20;99.90
8537;DHT22;4306;50.210;10.628;2023-12-07T12:04:35;3.10;99.90
8537;DHT22;4306;50.210;10.628;2023-12-07T12:07:02;3.00;99.90
8537;DHT22;4306;50.210;10.628;2023-12-07T12:09:29;2.90;99.90
8537;DHT22;4306;50.210;10.628;2023-12-07T12:11:57;2.90;99.90
8537;DHT22;4306;50.210;10.628;2023-12-07T12:14:26;2.90;99.90
8537;DHT22;4306;50.210;10.628;2023-12-07T12:16:54;2.90;99.90
8537;DHT22;4306;50.210;10.628;2023-12-07T12:19:22;2.90;99.90
8537;DHT22;4306;50.210;10.628;2023-12-07T12:21:51;3.00;99.90
8537;DHT22;4306;50.210;10.628;2023-12-07T12:24:18;3.10;99.90
8537;DHT22;4306;50.210;10.628;2023-12-07T12:26:45;3.10;99.90
8537;DHT22;4306;50.210;10.628;2023-12-07T12:29:14;3.00;99.90
8537;DHT22;4306;50.210;10.628;2023-12-07T12:31:42;3.00;99.90
8537;DHT22;4306;50.210;10.628;2023-12-07T12:34:10;3.00;99.90
8537;DHT22;4306;50.210;10.628;2023-12-07T12:36:38;3.10;99.90
8537;DHT22;4306;50.210;10.628;2023-12-07T12:39:07;3.10;99.90
8537;DHT22;4306;50.210;10.628;2023-12-07T12:41:34;3.10;99.90
8537;DHT22;4306;50.210;10.628;2023-12-07T12:44:01;3.10;99.90
8537;DHT22;4306;50.210;10.628;2023-12-07T12:46:28;3.10;99.90
8537;DHT22;4306;50.210;10.628;2023-12-07T12:48:57;3.20;99.90
8537;DHT22;4306;50.210;10.628;2023-12-07T12:51:26;3.20;99.90
8537;DHT22;4306;50.210;10.628;2023-12-07T12:53:54;3.20;99.90
8537;DHT22;4306;50.210;10.628;2023-12-07T12:56:26;3.20;99.90
8537;DHT22;4306;50.210;10.628;2023-12-07T12:58:54;3.00;99.90
8537;DHT22;4306;50.210;10.628;2023-12-07T13:01:22;3.00;99.90
8537;DHT22;4306;50.210;10.628;2023-12-07T13:03:51;3.00;99.90
8537;DHT22;4306;50.210;10.628;2023-12-07T13:06:18;3.00;99.90
8537;DHT22;4306;50.210;10.628;2023-12-07T13:08:46;3.00;99.90
8537;DHT22;4306;50.210;10.628;2023-12-07T13:11:15;3.00;99.90
8537;DHT22;4306;50.210;10.628;2023-12-07T13:13:45;2.90;99.90
8537;DHT22;4306;50.210;10.628;2023-12-07T13:16:13;3.00;99.90
8537;DHT22;4306;50.210;10.628;2023-12-07T13:18:41;3.10;99.90
8537;DHT22;4306;50.210;10.628;2023-12-07T13:21:08;3.00;99.90
8537;DHT22;4306;50.210;10.628;2023-12-07T13:23:37;3.00;99.90
8537;DHT22;4306;50.210;10.628;2023-12-07T13:26:04;3.00;99.90
8537;DHT22;4306;50.210;10.628;2023-12-07T13:28:32;3.00;99.90
8537;DHT22;4306;50.210;10.628;2023-12-07T13:31:00;3.10;99.90
8537;DHT22;4306;50.210;10.628;2023-12-07T13:33:27;3.00;99.90
8537;DHT22;4306;50.210;10.628;2023-12-07T13:35:54;3.00;99.90
8537;DHT22;4306;50.210;10.628;2023-12-07T13:38:22;3.00;99.90
8537;DHT22;4306;50.210;10.628;2023-12-07T13:40:49;3.00;99.90
8537;DHT22;4306;50.210;10.628;2023-12-07T13:43:16;3.00;99.90
8537;DHT22;4306;50.210;10.628;2023-12-07T13:45:43;3.00;99.90
8537;DHT22;4306;50.210;10.628;2023-12-07T13:48:11;3.00;99.90
8537;DHT22;4306;50.210;10.628;2023-12-07T13:50:38;3.00;99.90
8537;DHT22;4306;50.210;10.628;2023-12-07T13:53:05;3.00;99.90
8537;DHT22;4306;50.210;10.628;2023-12-07T13:55:35;2.90;99.90
8537;DHT22;4306;50.210;10.628;2023-12-07T13:58:03;2.90;99.90
8537;DHT22;4306;50.210;10.628;2023-12-07T14:00:30;2.90;99.90
8537;DHT22;4306;50.210;10.628;2023-12-07T14:02:57;2.70;99.90
8537;DHT22;4306;50.210;10.628;2023-12-07T14:05:25;2.80;99.90
8537;DHT22;4306;50.210;10.628;2023-12-07T14:07:52;2.60;99.90
8537;DHT22;4306;50.210;10.628;2023-12-07T14:10:19;2.50;99.90
8537;DHT22;4306;50.210;10.628;2023-12-07T14:12:47;2.60;99.90
8537;DHT22;4306;50.210;10.628;2023-12-07T14:15:14;2.70;99.90
8537;DHT22;4306;50.210;10.628;2023-12-07T14:17:41;2.60;99.90
8537;DHT22;4306;50.210;10.628;2023-12-07T14:20:09;2.30;99.90
8537;DHT22;4306;50.210;10.628;2023-12-07T14:22:39;2.30;99.90
8537;DHT22;4306;50.210;10.628;2023-12-07T14:25:06;2.20;99.90
8537;DHT22;4306;50.210;10.628;2023-12-07T14:27:34;2.00;99.90
8537;DHT22;4306;50.210;10.628;2023-12-07T14:30:01;1.80;99.90
8537;DHT22;4306;50.210;10.628;2023-12-07T14:32:28;1.80;99.90
8537;DHT22;4306;50.210;10.628;2023-12-07T14:34:55;1.90;99.90
8537;DHT22;4306;50.210;10.628;2023-12-07T14:37:22;1.90;99.90
8537;DHT22;4306;50.210;10.628;2023-12-07T14:39:51;1.60;99.90
8537;DHT22;4306;50.210;10.628;2023-12-07T14:42:18;1.50;99.90
8537;DHT22;4306;50.210;10.628;2023-12-07T14:44:45;1.50;99.90
8537;DHT22;4306;50.210;10.628;2023-12-07T14:47:13;1.50;99.90
8537;DHT22;4306;50.210;10.628;2023-12-07T14:49:41;1.50;99.90
8537;DHT22;4306;50.210;10.628;2023-12-07T14:52:08;1.60;99.90
8537;DHT22;4306;50.210;10.628;2023-12-07T14:54:36;1.60;99.90
8537;DHT22;4306;50.210;10.628;2023-12-07T14:57:05;1.50;99.90
8537;DHT22;4306;50.210;10.628;2023-12-07T14:59:33;1.30;99.90
8537;DHT22;4306;50.210;10.628;2023-12-07T15:02:00;1.20;99.90
8537;DHT22;4306;50.210;10.628;2023-12-07T15:04:28;1.20;99.90
8537;DHT22;4306;50.210;10.628;2023-12-07T15:06:56;1.20;99.90
8537;DHT22;4306;50.210;10.628;2023-12-07T15:09:23;1.00;99.90
8537;DHT22;4306;50.210;10.628;2023-12-07T15:11:50;0.90;99.90
8537;DHT22;4306;50.210;10.628;2023-12-07T15:14:19;0.90;99.90
8537;DHT22;4306;50.210;10.628;2023-12-07T15:16:46;0.90;99.90
8537;DHT22;4306;50.210;10.628;2023-12-07T15:19:13;0.90;99.90
8537;DHT22;4306;50.210;10.628;2023-12-07T15:21:41;0.80;99.90
8537;DHT22;4306;50.210;10.628;2023-12-07T15:24:08;1.00;99.90
8537;DHT22;4306;50.210;10.628;2023-12-07T15:26:35;1.00;99.90
8537;DHT22;4306;50.210;10.628;2023-12-07T15:29:02;1.00;99.90
8537;DHT22;4306;50.210;10.628;2023-12-07T15:31:30;1.00;99.90
8537;DHT22;4306;50.210;10.628;2023-12-07T15:33:58;1.00;99.90
8537;DHT22;4306;50.210;10.628;2023-12-07T15:36:25;0.90;99.90
8537;DHT22;4306;50.210;10.628;2023-12-07T15:38:53;0.90;99.90
8537;DHT22;4306;50.210;10.628;2023-12-07T15:41:24;0.90;99.90
8537;DHT22;4306;50.210;10.628;2023-12-07T15:43:52;1.00;99.90
8537;DHT22;4306;50.210;10.628;2023-12-07T15:46:20;1.00;99.90
8537;DHT22;4306;50.210;10.628;2023-12-07T15:48:48;1.10;99.90
8537;DHT22;4306;50.210;10.628;2023-12-07T15:51:15;1.20;99.90
8537;DHT22;4306;50.210;10.628;2023-12-07T15:53:42;1.20;99.90
8537;DHT22;4306;50.210;10.628;2023-12-07T15:56:09;1.10;99.90
8537;DHT22;4306;50.210;10.628;2023-12-07T15:58:36;1.00;99.90
8537;DHT22;4306;50.210;10.628;2023-12-07T16:01:04;1.10;99.90
8537;DHT22;4306;50.210;10.628;2023-12-07T16:03:31;1.10;99.90
8537;DHT22;4306;50.210;10.628;2023-12-07T16:06:02;1.20;99.90